»·PEaware :: N413C KSBP-KSMO

N413C :: KSBP-KSMO

FLIGHT INFORMATION

Flight Status: Arrived
Operator: Privately registered:
United States
More flights under this callsign
Pilot: Alec D. (17934)
Aircraft: CESSNA 182 SKYLANE
(C182)
More flights by this aircraft type
Origin: KSBP San Luis Co Regl
United States
Destination: KSMO Santa Monica Mun
United States
More flights between these airports :: More routes between these airports
Route: RZS V186 DARTS
File this flight plan on PilotEdge
Remarks:
Altitude:
(Current/Filed)
7,000ft
Speed:
(Current/Filed)
135kts
Departed: 07-Oct-19 02:18 PM
Arrived: 07-Oct-19 03:26 PM
Distance/Time
Traveled:
131nm/1:08
Distance/Time
To Go:
Arrived

Flight Plot

Page will automatically refresh every two minutes.


Map Options




Map Legend


Flown Route
Filed Route
Departure Airport
Arrival Airport
Navaid (VOR, NDB)
Fix

Horizontal Profiles

Position Reports

Time Latitude Longitude Heading Altitude Ground
Speed
07-Oct-19 13:58 35.238717 -120.646904 213 215ft 0kts
07-Oct-19 13:59 35.238717 -120.646904 213 215ft 0kts
07-Oct-19 14:00 35.238717 -120.646904 213 215ft 0kts
07-Oct-19 14:01 35.238717 -120.646904 213 215ft 0kts
07-Oct-19 14:02 35.238712 -120.646908 213 215ft 0kts
07-Oct-19 14:03 35.238705 -120.646913 213 215ft 0kts
07-Oct-19 14:04 35.238697 -120.646919 213 215ft 0kts
07-Oct-19 14:05 35.238690 -120.646925 213 215ft 0kts
07-Oct-19 14:06 35.238682 -120.646932 213 215ft 0kts
07-Oct-19 14:07 35.238675 -120.646938 213 215ft 0kts
07-Oct-19 14:08 35.238667 -120.646944 213 215ft 0kts
07-Oct-19 14:08 35.238465 -120.646609 85 215ft 8kts
07-Oct-19 14:10 35.238237 -120.640935 97 215ft 15kts
07-Oct-19 14:11 35.235703 -120.636137 123 215ft 17kts
07-Oct-19 14:11 35.233548 -120.632202 124 215ft 11kts
07-Oct-19 14:13 35.233207 -120.632014 280 215ft 0kts
07-Oct-19 14:14 35.233212 -120.632044 280 215ft 0kts
07-Oct-19 14:14 35.233214 -120.632060 280 215ft 0kts
07-Oct-19 14:15 35.233215 -120.632068 280 215ft 0kts
07-Oct-19 14:16 35.233059 -120.633486 304 215ft 7kts
07-Oct-19 14:17 35.243217 -120.650568 305 753ft 93kts
07-Oct-19 14:18 35.260137 -120.677672 304 1774ft 104kts
07-Oct-19 14:19 35.277399 -120.706783 306 2797ft 106kts
07-Oct-19 14:20 35.286968 -120.739491 234 3509ft 123kts
07-Oct-19 14:21 35.254720 -120.734789 133 4243ft 129kts
07-Oct-19 14:22 35.230998 -120.703865 134 5019ft 114kts
07-Oct-19 14:23 35.210573 -120.677123 134 5805ft 103kts
07-Oct-19 14:24 35.191071 -120.651591 134 6572ft 105kts
07-Oct-19 14:25 35.170165 -120.624212 134 6999ft 124kts
07-Oct-19 14:26 35.145060 -120.591389 134 6990ft 134kts
07-Oct-19 14:27 35.119026 -120.557396 134 7001ft 147kts
07-Oct-19 14:28 35.090685 -120.520402 134 6991ft 144kts
07-Oct-19 14:29 35.063797 -120.485364 134 7008ft 140kts
07-Oct-19 14:30 35.037070 -120.450563 134 7009ft 140kts
07-Oct-19 14:31 35.009903 -120.415251 134 7019ft 149kts
07-Oct-19 14:32 34.981381 -120.378178 134 6997ft 144kts
07-Oct-19 14:33 34.954051 -120.342712 134 7017ft 147kts
07-Oct-19 14:34 34.926035 -120.306378 134 7004ft 143kts
07-Oct-19 14:35 34.899016 -120.271398 134 7004ft 140kts
07-Oct-19 14:36 34.872535 -120.237138 134 7012ft 138kts
07-Oct-19 14:37 34.846083 -120.202949 134 7005ft 139kts
07-Oct-19 14:38 34.819536 -120.168685 134 6998ft 139kts
07-Oct-19 14:39 34.792946 -120.134379 134 6998ft 140kts
07-Oct-19 14:40 34.765967 -120.099619 134 6988ft 143kts
07-Oct-19 14:41 34.738341 -120.064058 134 6989ft 146kts
07-Oct-19 14:42 34.710334 -120.028041 134 6978ft 146kts
07-Oct-19 14:43 34.682491 -119.992286 134 6980ft 148kts
07-Oct-19 14:44 34.654336 -119.956163 134 6969ft 141kts
07-Oct-19 14:45 34.627630 -119.921939 134 6981ft 139kts
07-Oct-19 14:46 34.600790 -119.887549 134 6992ft 141kts
07-Oct-19 14:47 34.573801 -119.853025 134 6989ft 138kts
07-Oct-19 14:48 34.547509 -119.819425 134 6995ft 136kts
07-Oct-19 14:49 34.521458 -119.786179 134 7001ft 136kts
07-Oct-19 14:50 34.498066 -119.749813 124 7001ft 138kts
07-Oct-19 14:51 34.476659 -119.710283 124 7015ft 146kts
07-Oct-19 14:52 34.454219 -119.668955 124 6993ft 142kts
07-Oct-19 14:53 34.432754 -119.629409 125 7000ft 138kts
07-Oct-19 14:54 34.411587 -119.590446 125 7009ft 137kts
07-Oct-19 14:55 34.390554 -119.551836 125 7009ft 137kts
07-Oct-19 14:56 34.369505 -119.513216 125 7009ft 137kts
07-Oct-19 14:57 34.348405 -119.474539 124 7009ft 138kts
07-Oct-19 14:58 34.327186 -119.435676 124 7005ft 138kts
07-Oct-19 14:59 34.318584 -119.391875 88 7010ft 142kts
07-Oct-19 15:00 34.322378 -119.341499 88 6999ft 156kts
07-Oct-19 15:01 34.326345 -119.289489 88 6991ft 155kts
07-Oct-19 15:02 34.330251 -119.237935 87 6995ft 154kts
07-Oct-19 15:03 34.334129 -119.186637 87 6988ft 147kts
07-Oct-19 15:04 34.337836 -119.136945 87 6997ft 154kts
07-Oct-19 15:05 34.341710 -119.084926 87 6986ft 156kts
07-Oct-19 15:06 34.345587 -119.032583 87 6988ft 157kts
07-Oct-19 15:07 34.349401 -118.980898 87 6980ft 148kts
07-Oct-19 15:08 34.347742 -118.932018 110 6906ft 150kts
07-Oct-19 15:09 34.332568 -118.884058 110 6437ft 154kts
07-Oct-19 15:10 34.318399 -118.835080 110 5928ft 151kts
07-Oct-19 15:11 34.304737 -118.787159 109 5402ft 150kts
07-Oct-19 15:12 34.290996 -118.738951 109 5005ft 153kts
07-Oct-19 15:13 34.277427 -118.691405 109 4978ft 149kts
07-Oct-19 15:14 34.263719 -118.643461 109 4608ft 153kts
07-Oct-19 15:15 34.249958 -118.595401 109 4092ft 147kts
07-Oct-19 15:16 34.229848 -118.556241 131 3967ft 134kts
07-Oct-19 15:17 34.205203 -118.522689 131 3947ft 133kts
07-Oct-19 15:18 34.179866 -118.488548 131 3951ft 143kts
07-Oct-19 15:19 34.152310 -118.451755 132 3502ft 150kts
07-Oct-19 15:20 34.124852 -118.415255 132 2989ft 139kts
07-Oct-19 15:21 34.098760 -118.385236 144 2663ft 131kts
07-Oct-19 15:22 34.067300 -118.385023 229 1988ft 142kts
07-Oct-19 15:23 34.043136 -118.419036 226 1237ft 101kts
07-Oct-19 15:24 34.027517 -118.437439 225 468ft 71kts
07-Oct-19 15:25 34.017221 -118.449622 223 178ft 22kts
07-Oct-19 15:26 34.013801 -118.454082 292 178ft 5kts
07-Oct-19 15:27 34.016138 -118.452587 319 178ft 12kts
07-Oct-19 15:28 34.016246 -118.452727 307 178ft 0kts

Navigation Log

Ident Type
Flight plan parsing failed, navigation log unavailable